Time;durP1;ratioP1;P1;durP2;ratioP2;P2;SDS_P1;SDS_P2;PMS_P1;PMS_P2;Temp;Humidity;BMP_temperature;BMP_pressure;BME280_temperature;BME280_humidity;BME280_pressure;Samples;Min_cycle;Max_cycle;Signal;HPM_P1;HPM_P2
2022/12/22 03:27:14;;;;;;;9.52;4.63;;;;;;;-4.45;81.96;96646.66;5136490;27;20058;-60
2022/12/22 03:29:41;;;;;;;10.90;4.60;;;;;;;-4.54;82.31;96643.06;5135967;27;20051;-61
2022/12/22 03:32:08;;;;;;;7.47;3.90;;;;;;;-4.60;82.49;96642.06;5136121;27;20111;-61
2022/12/22 03:34:36;;;;;;;12.73;4.68;;;;;;;-4.57;83.04;96646.41;5135001;27;20134;-60
2022/12/22 03:37:03;;;;;;;7.72;3.67;;;;;;;-4.55;82.98;96647.28;5135957;27;20049;-62
2022/12/22 03:39:30;;;;;;;9.52;4.35;;;;;;;-4.50;82.46;96644.84;5136074;27;20046;-63
2022/12/22 03:47:26;;;;;;;6.68;3.80;;;;;;;-4.48;82.77;96641.50;5135710;27;20074;-63
2022/12/22 03:49:55;;;;;;;8.02;4.45;;;;;;;-4.45;83.14;96641.56;5135646;27;20437;-60
2022/12/22 03:52:22;;;;;;;9.00;4.30;;;;;;;-4.38;83.13;96636.59;5135676;27;20068;-62
2022/12/22 03:54:49;;;;;;;8.77;4.10;;;;;;;-4.31;83.31;96638.47;5135680;27;20051;-60
2022/12/22 03:57:16;;;;;;;5.25;3.30;;;;;;;-4.29;82.98;96641.91;5135476;27;20050;-63
2022/12/22 03:59:43;;;;;;;6.72;3.58;;;;;;;-4.28;82.86;96642.78;5135345;27;20095;-61
2022/12/22 04:02:10;;;;;;;6.55;3.55;;;;;;;-4.34;82.77;96635.84;5135656;27;20134;-61
2022/12/22 04:04:37;;;;;;;8.25;4.10;;;;;;;-4.32;82.90;96637.63;5135613;27;20047;-60
2022/12/22 04:07:05;;;;;;;6.05;3.75;;;;;;;-4.25;82.75;96640.31;5135492;27;20134;-63
2022/12/22 04:09:32;;;;;;;8.77;3.45;;;;;;;-4.21;82.06;96632.72;5135266;27;20081;-61
2022/12/22 04:14:43;;;;;;;5.47;3.28;;;;;;;-4.22;81.03;96636.13;5135497;27;20058;-63
2022/12/22 04:17:10;;;;;;;7.63;3.70;;;;;;;-4.31;81.61;96630.78;5135145;27;20043;-62
2022/12/22 04:19:37;;;;;;;5.78;3.45;;;;;;;-4.26;81.88;96631.78;5135228;27;20130;-60
2022/12/22 04:22:07;;;;;;;6.57;4.43;;;;;;;-4.21;82.23;96629.31;5134867;27;20055;-61
2022/12/22 04:24:34;;;;;;;4.75;3.65;;;;;;;-4.17;82.12;96633.66;5135020;27;20051;-63
2022/12/22 04:27:00;;;;;;;7.30;3.33;;;;;;;-4.14;82.06;96638.84;5134901;27;20124;-62
2022/12/22 04:29:27;;;;;;;6.07;3.83;;;;;;;-4.10;81.84;96630.41;5134884;27;20053;-63
2022/12/22 04:31:54;;;;;;;3.67;2.90;;;;;;;-4.14;82.05;96626.06;5134678;27;20400;-63
2022/12/22 04:34:21;;;;;;;7.35;3.40;;;;;;;-4.19;81.56;96637.88;5134998;27;20050;-61
2022/12/22 04:36:48;;;;;;;4.10;2.63;;;;;;;-4.25;81.39;96635.19;5134626;27;20130;-63
2022/12/22 04:39:17;;;;;;;4.32;2.75;;;;;;;-4.32;81.69;96629.06;5134701;27;20039;-63
2022/12/22 04:41:44;;;;;;;4.88;3.38;;;;;;;-4.31;82.37;96635.91;5134699;27;20136;-63
2022/12/22 04:44:11;;;;;;;5.82;3.25;;;;;;;-4.30;82.34;96632.53;5134449;27;20134;-61
2022/12/22 04:46:38;;;;;;;7.35;4.90;;;;;;;-4.23;82.00;96633.53;5134451;27;20082;-62
2022/12/22 04:49:05;;;;;;;4.15;3.50;;;;;;;-4.20;81.49;96631.03;5134504;27;20039;-61
2022/12/22 04:51:32;;;;;;;7.05;3.75;;;;;;;-4.18;81.39;96637.91;5134615;27;20039;-63
2022/12/22 04:53:59;;;;;;;9.13;5.53;;;;;;;-4.15;81.54;96636.25;5134325;27;20043;-62
2022/12/22 04:56:27;;;;;;;5.60;3.35;;;;;;;-4.24;81.27;96626.69;5134495;27;20043;-60
2022/12/22 04:58:54;;;;;;;4.10;2.97;;;;;;;-4.28;81.36;96630.84;5134437;27;20100;-63
2022/12/22 05:01:21;;;;;;;4.95;3.35;;;;;;;-4.22;81.66;96627.56;5134308;27;20089;-62
2022/12/22 05:03:48;;;;;;;6.72;3.63;;;;;;;-4.24;81.48;96632.66;5134482;27;20047;-60
2022/12/22 05:06:16;;;;;;;7.70;4.70;;;;;;;-4.27;81.39;96618.97;5134359;27;20044;-63
2022/12/22 05:08:43;;;;;;;13.32;7.28;;;;;;;-4.23;81.75;96630.97;5134402;27;20103;-63
2022/12/22 05:11:10;;;;;;;10.40;4.55;;;;;;;-4.25;81.59;96635.19;5134356;27;20096;-63
2022/12/22 05:13:39;;;;;;;7.32;4.15;;;;;;;-4.24;81.70;96635.19;5133988;27;20047;-63
2022/12/22 05:16:08;;;;;;;7.93;3.90;;;;;;;-4.31;81.65;96628.22;5134080;27;20047;-64
2022/12/22 05:18:36;;;;;;;6.35;4.18;;;;;;;-4.28;81.84;96635.97;5134130;27;20043;-62
2022/12/22 05:21:04;;;;;;;7.60;4.28;;;;;;;-4.29;81.81;96634.25;5134150;28;20378;-60
2022/12/22 05:23:32;;;;;;;5.45;3.60;;;;;;;-4.32;82.12;96636.75;5134090;28;20058;-63
2022/12/22 05:25:59;;;;;;;7.20;4.28;;;;;;;-4.35;82.40;96635.00;5133991;28;20107;-60
2022/12/22 05:28:27;;;;;;;7.10;4.35;;;;;;;-4.33;81.45;96632.47;5134001;28;20139;-60
2022/12/22 05:30:55;;;;;;;6.13;4.13;;;;;;;-4.32;81.41;96635.06;5134154;28;20055;-61
2022/12/22 05:33:22;;;;;;;5.43;4.35;;;;;;;-4.37;81.40;96623.88;5133968;28;20044;-60
2022/12/22 05:35:49;;;;;;;6.55;3.53;;;;;;;-4.44;81.46;96625.44;5133986;28;20043;-63
2022/12/22 05:38:16;;;;;;;4.40;3.33;;;;;;;-4.45;81.96;96613.47;5133928;28;20043;-63
2022/12/22 05:40:44;;;;;;;6.55;3.47;;;;;;;-4.46;81.80;96619.41;5133866;28;20146;-62
2022/12/22 05:43:11;;;;;;;6.47;3.65;;;;;;;-4.53;82.15;96615.00;5133796;28;20137;-60
2022/12/22 05:45:38;;;;;;;5.72;3.72;;;;;;;-4.53;81.96;96614.13;5133921;28;20047;-63
2022/12/22 05:48:07;;;;;;;6.80;3.60;;;;;;;-4.50;82.39;96616.75;5134006;28;20479;-64
2022/12/22 05:50:34;;;;;;;5.10;3.55;;;;;;;-4.40;82.03;96620.41;5133886;28;20116;-61
2022/12/22 05:53:02;;;;;;;3.47;2.97;;;;;;;-4.37;81.59;96618.75;5133641;28;20135;-60
2022/12/22 05:55:29;;;;;;;6.57;4.32;;;;;;;-4.41;81.69;96624.63;5133683;28;20047;-63
2022/12/22 05:58:00;;;;;;;9.27;5.70;;;;;;;-4.35;81.60;96635.00;5134274;27;20090;-61
2022/12/22 06:00:28;;;;;;;9.90;4.80;;;;;;;-4.31;81.77;96625.69;5137826;27;20047;-60
2022/12/22 06:02:55;;;;;;;7.85;3.83;;;;;;;-4.34;82.09;96630.72;5137668;27;20508;-63
2022/12/22 06:05:24;;;;;;;6.63;3.03;;;;;;;-4.37;82.02;96634.06;5137577;27;20153;-63
2022/12/22 06:07:51;;;;;;;6.90;3.40;;;;;;;-4.29;81.91;96633.38;5137550;27;20078;-63
2022/12/22 06:10:19;;;;;;;4.30;3.00;;;;;;;-4.23;81.37;96631.84;5137623;27;20046;-62
2022/12/22 06:12:45;;;;;;;3.90;2.95;;;;;;;-4.18;80.98;96643.00;5137830;27;20054;-60
2022/12/22 06:15:15;;;;;;;5.78;3.58;;;;;;;-4.18;80.72;96640.44;5137513;27;20043;-62
2022/12/22 06:17:42;;;;;;;7.25;3.22;;;;;;;-4.22;81.41;96645.47;5137528;27;20516;-63
2022/12/22 06:20:10;;;;;;;5.68;3.20;;;;;;;-4.18;81.57;96640.44;5137495;27;20039;-64
2022/12/22 06:22:38;;;;;;;4.35;3.08;;;;;;;-4.11;81.59;96646.56;5137230;27;20059;-60
2022/12/22 06:25:06;;;;;;;8.38;3.83;;;;;;;-4.01;82.73;96647.63;5137353;27;20043;-60
2022/12/22 06:27:34;;;;;;;9.73;4.00;;;;;;;-2.90;85.08;96644.56;5137221;27;20064;-62
2022/12/22 06:30:01;;;;;;;4.05;3.03;;;;;;;-0.95;79.47;96641.09;5137215;27;20126;-63
2022/12/22 06:32:28;;;;;;;6.25;2.45;;;;;;;1.13;72.27;96643.88;5137220;27;20058;-63
2022/12/22 06:34:55;;;;;;;3.03;2.15;;;;;;;3.07;61.51;96651.09;5137215;27;20047;-62
2022/12/22 06:37:22;;;;;;;2.83;2.20;;;;;;;4.51;55.01;96642.91;5137070;27;20126;-60
2022/12/22 06:39:51;;;;;;;4.97;2.28;;;;;;;6.09;51.72;96656.16;5136950;27;20134;-64
2022/12/22 06:45:02;;;;;;;5.40;2.40;;;;;;;8.64;43.51;96647.75;5136989;27;20054;-65
2022/12/22 06:47:29;;;;;;;3.25;2.38;;;;;;;9.55;41.87;96657.22;5136906;27;20050;-63
2022/12/22 06:49:56;;;;;;;2.55;2.17;;;;;;;10.55;38.27;96656.50;5136813;27;20081;-66
2022/12/22 06:52:23;;;;;;;3.35;2.50;;;;;;;11.15;38.04;96660.41;5136991;27;20054;-62
2022/12/22 06:54:52;;;;;;;3.83;2.75;;;;;;;12.08;36.91;96660.25;5136779;27;20461;-66
2022/12/22 06:57:20;;;;;;;3.03;2.53;;;;;;;13.19;35.15;96658.91;5136888;27;20162;-65
2022/12/22 06:59:47;;;;;;;2.63;2.42;;;;;;;13.99;33.28;96653.38;5136591;27;20461;-64
2022/12/22 07:02:14;;;;;;;5.85;2.90;;;;;;;14.74;31.80;96657.47;5136466;27;20047;-62
2022/12/22 07:04:41;;;;;;;3.08;2.10;;;;;;;14.91;31.02;96656.59;5136577;27;20555;-62
2022/12/22 07:07:08;;;;;;;3.38;2.50;;;;;;;15.19;30.95;96659.50;5136377;27;20134;-63
2022/12/22 07:09:35;;;;;;;2.38;2.03;;;;;;;15.61;30.81;96664.25;5135147;27;20827;-65
2022/12/22 07:12:04;;;;;;;2.63;2.30;;;;;;;16.06;29.84;96660.88;5136343;27;20111;-63
2022/12/22 07:14:31;;;;;;;2.72;2.03;;;;;;;16.42;28.87;96655.22;5136471;27;20130;-65
2022/12/22 07:16:58;;;;;;;2.20;2.00;;;;;;;16.40;29.04;96670.31;5136424;27;20564;-64
2022/12/22 07:19:25;;;;;;;2.80;2.45;;;;;;;16.54;28.80;96658.94;5136346;27;20054;-63
2022/12/22 07:21:52;;;;;;;2.58;2.05;;;;;;;17.10;28.52;96654.69;5136172;27;20072;-64
2022/12/22 07:24:23;;;;;;;5.45;2.60;;;;;;;17.57;27.62;96651.75;5136439;27;20043;-66
2022/12/22 07:26:50;;;;;;;3.65;3.15;;;;;;;18.23;27.09;96650.16;5136121;27;20043;-64
2022/12/22 07:29:19;;;;;;;3.38;2.50;;;;;;;18.81;26.26;96653.28;5136222;27;20043;-63
2022/12/22 07:31:46;;;;;;;4.30;2.60;;;;;;;19.31;25.72;96651.63;5136423;27;20058;-65
2022/12/22 07:34:13;;;;;;;3.78;3.08;;;;;;;19.30;25.40;96656.06;5136031;27;20130;-64
2022/12/22 07:36:40;;;;;;;5.30;3.60;;;;;;;19.30;25.46;96653.41;5136169;27;20043;-64
2022/12/22 07:39:07;;;;;;;4.45;3.88;;;;;;;19.55;25.41;96651.66;5136064;27;20082;-63
2022/12/22 07:44:20;;;;;;;4.57;3.47;;;;;;;20.14;24.97;96650.97;5135552;27;20574;-65
2022/12/22 07:46:47;;;;;;;4.63;3.58;;;;;;;20.11;24.87;96649.41;5135746;27;20080;-63
2022/12/22 07:52:07;;;;;;;7.43;4.97;;;;;;;20.64;24.29;96656.03;5087031;27;20065;-65
2022/12/22 07:54:35;;;;;;;12.38;8.48;;;;;;;20.22;24.25;96661.84;5135557;27;20118;-63
2022/12/22 07:57:02;;;;;;;9.15;6.65;;;;;;;20.30;24.48;96654.19;5135549;27;20082;-65
2022/12/22 07:59:30;;;;;;;9.23;6.00;;;;;;;20.43;24.57;96648.75;5135453;27;20172;-64
2022/12/22 08:01:57;;;;;;;10.07;5.93;;;;;;;20.68;24.48;96648.69;5135273;27;20078;-65
2022/12/22 08:04:24;;;;;;;7.10;4.65;;;;;;;21.16;24.23;96649.44;5135343;27;20134;-64
2022/12/22 08:06:52;;;;;;;6.05;4.25;;;;;;;21.62;23.80;96654.69;5135512;27;20046;-61
2022/12/22 08:09:21;;;;;;;6.78;4.85;;;;;;;22.09;23.26;96657.06;5135294;27;20077;-64
2022/12/22 08:11:49;;;;;;;6.60;4.90;;;;;;;22.01;23.19;96659.53;5135491;27;20120;-65
2022/12/22 08:14:16;;;;;;;7.50;5.35;;;;;;;21.94;23.58;96657.38;5135532;27;20273;-63
2022/12/22 08:16:45;;;;;;;6.10;5.30;;;;;;;21.84;23.71;96656.47;5135172;27;20046;-62
2022/12/22 08:19:12;;;;;;;5.32;4.82;;;;;;;21.80;24.20;96658.53;5135231;27;20051;-62
2022/12/22 08:21:39;;;;;;;7.57;5.10;;;;;;;21.70;23.89;96654.88;5134658;27;20082;-66
2022/12/22 08:24:07;;;;;;;7.00;4.20;;;;;;;21.04;25.08;96652.09;5134944;27;20411;-66
2022/12/22 08:26:38;;;;;;;8.82;6.10;;;;;;;21.07;24.60;96651.03;5135092;27;20135;-64
2022/12/22 08:29:09;;;;;;;7.82;6.05;;;;;;;21.50;24.25;96653.84;5134954;27;20057;-62
2022/12/22 08:31:35;;;;;;;;;;;;;;;21.72;23.07;96652.97;5135351;27;20051;-64
2022/12/22 08:34:08;;;;;;;9.18;6.22;;;;;;;21.77;22.61;96647.28;5134731;27;20448;-64
2022/12/22 08:36:39;;;;;;;8.13;5.35;;;;;;;21.60;22.39;96644.16;5134870;27;20046;-64
2022/12/22 08:39:07;;;;;;;5.85;4.63;;;;;;;20.98;22.98;96643.78;5134662;27;20100;-65
2022/12/22 08:41:50;;;;;;;6.72;4.68;;;;;;;20.19;24.17;96638.19;5134662;27;20054;-65
2022/12/22 08:44:19;;;;;;;5.82;4.25;;;;;;;19.28;24.94;96639.44;5134521;27;20046;-63
2022/12/22 08:46:46;;;;;;;8.05;5.07;;;;;;;18.64;26.29;96635.06;5134474;27;20065;-66
2022/12/22 08:49:15;;;;;;;6.07;4.80;;;;;;;17.94;26.93;96637.91;5134477;27;20412;-65
2022/12/22 08:51:42;;;;;;;11.82;5.43;;;;;;;17.26;27.70;96629.94;5134454;27;20071;-65
2022/12/22 08:54:10;;;;;;;7.45;5.38;;;;;;;16.64;28.69;96626.66;5134352;27;20047;-66
2022/12/22 08:56:37;;;;;;;12.88;6.05;;;;;;;16.19;29.61;96627.56;5134304;27;20077;-61
2022/12/22 08:59:06;;;;;;;6.85;5.45;;;;;;;16.06;29.82;96627.44;5134433;27;20126;-64
2022/12/22 09:01:35;;;;;;;5.95;4.90;;;;;;;15.70;30.27;96624.19;5134333;27;20058;-64
2022/12/22 09:04:03;;;;;;;7.18;5.40;;;;;;;14.92;31.63;96617.94;5134237;27;20477;-64
2022/12/22 09:06:32;;;;;;;6.20;4.60;;;;;;;14.34;31.96;96610.41;5134267;27;20053;-63
2022/12/22 09:09:01;;;;;;;9.65;4.97;;;;;;;13.58;33.57;96619.47;5134312;27;20130;-62
2022/12/22 09:11:29;;;;;;;7.22;4.80;;;;;;;12.96;34.38;96612.69;5134315;27;20086;-63
2022/12/22 09:13:58;;;;;;;10.98;5.32;;;;;;;12.20;35.90;96606.44;5134438;27;20045;-64
2022/12/22 09:16:27;;;;;;;6.30;4.32;;;;;;;11.51;37.88;96601.41;5134196;27;20115;-66
2022/12/22 09:18:55;;;;;;;5.63;4.65;;;;;;;10.79;39.71;96595.47;5134202;27;20431;-63
2022/12/22 09:21:23;;;;;;;6.55;5.05;;;;;;;10.41;41.44;96598.59;5134176;28;20039;-63
2022/12/22 09:23:52;;;;;;;6.63;5.00;;;;;;;9.63;43.31;96588.19;5134033;28;20468;-63
2022/12/22 09:26:20;;;;;;;6.90;4.40;;;;;;;9.46;42.29;96587.81;5134061;28;20106;-64
2022/12/22 09:28:48;;;;;;;8.35;5.55;;;;;;;9.33;42.01;96582.16;5134016;28;20044;-65
2022/12/22 09:31:15;;;;;;;7.47;5.30;;;;;;;9.22;42.69;96581.66;5134261;28;20043;-65
2022/12/22 09:33:43;;;;;;;6.88;5.40;;;;;;;8.89;43.41;96567.00;5136056;27;20084;-63
2022/12/22 09:36:12;;;;;;;7.00;5.47;;;;;;;8.80;44.36;96567.28;5138112;27;20082;-63
2022/12/22 09:38:41;;;;;;;5.07;4.23;;;;;;;8.64;43.29;96566.91;5137980;27;20075;-63
2022/12/22 09:41:15;;;;;;;10.20;5.68;;;;;;;8.66;44.94;96562.47;5138207;27;20279;-64
2022/12/22 09:43:42;;;;;;;8.90;5.03;;;;;;;8.50;44.51;96562.06;5138068;27;20090;-62
2022/12/22 09:46:18;;;;;;;12.10;5.10;;;;;;;8.57;44.92;96566.22;5138025;27;20057;-66
2022/12/22 09:48:45;;;;;;;5.43;4.63;;;;;;;8.35;45.09;96561.59;5137976;27;20438;-66
2022/12/22 09:51:14;;;;;;;7.55;5.05;;;;;;;8.09;45.88;96558.84;5138025;27;20134;-62
2022/12/22 09:53:42;;;;;;;7.45;5.45;;;;;;;8.30;44.35;96558.25;5137826;27;20073;-62
2022/12/22 09:56:14;;;;;;;7.88;5.07;;;;;;;8.43;44.17;96558.78;5137941;27;20047;-65
2022/12/22 09:58:42;;;;;;;8.10;4.78;;;;;;;8.34;44.12;96550.31;5137757;27;20047;-65
2022/12/22 10:01:28;;;;;;;10.02;7.03;;;;;;;8.34;44.41;96550.31;5138073;27;20077;-63
2022/12/22 10:04:01;;;;;;;7.47;5.15;;;;;;;8.41;43.78;96539.72;5137723;27;20196;-64
2022/12/22 10:06:35;;;;;;;7.03;4.63;;;;;;;8.38;42.87;96543.28;5137681;27;20050;-65
2022/12/22 10:09:09;;;;;;;6.07;4.60;;;;;;;8.47;42.69;96540.41;5137689;27;20075;-62
2022/12/22 10:11:37;;;;;;;7.07;4.80;;;;;;;8.44;43.82;96530.06;5137623;27;20122;-65
2022/12/22 10:14:04;;;;;;;6.45;5.03;;;;;;;8.46;45.33;96530.03;5137582;27;20525;-66
2022/12/22 10:16:31;;;;;;;8.20;6.15;;;;;;;8.40;45.07;96527.59;5137694;27;20079;-64
2022/12/22 10:19:01;;;;;;;7.53;5.03;;;;;;;8.43;44.28;96520.50;5137467;27;20100;-63
2022/12/22 10:21:28;;;;;;;5.07;4.20;;;;;;;8.47;42.39;96518.69;5137558;27;20494;-63
2022/12/22 10:23:55;;;;;;;8.43;4.55;;;;;;;8.53;41.97;96513.28;5137166;27;20086;-65
2022/12/22 10:26:25;;;;;;;6.85;4.68;;;;;;;8.61;44.04;96512.22;5137277;27;20078;-65
2022/12/22 10:28:58;;;;;;;7.40;4.70;;;;;;;8.53;43.86;96512.44;5137491;27;20049;-63
2022/12/22 10:31:28;;;;;;;8.88;4.95;;;;;;;8.47;43.67;96503.91;5137320;27;20396;-65
2022/12/22 10:33:57;;;;;;;9.57;5.15;;;;;;;8.39;43.02;96508.47;5137167;27;20070;-63
2022/12/22 10:36:26;;;;;;;5.97;3.95;;;;;;;8.46;41.06;96504.78;5137246;27;20051;-63
2022/12/22 10:39:00;;;;;;;7.53;5.17;;;;;;;8.35;41.63;96504.25;5137150;27;20054;-63
2022/12/22 10:41:31;;;;;;;5.85;4.03;;;;;;;8.39;43.43;96502.41;5136946;27;20457;-65
2022/12/22 10:44:02;;;;;;;6.30;4.72;;;;;;;8.54;41.64;96496.78;5136657;27;20047;-63
2022/12/22 10:46:34;;;;;;;6.15;4.70;;;;;;;8.61;42.85;96493.97;5136940;27;20104;-63
2022/12/22 10:49:18;;;;;;;7.60;4.95;;;;;;;8.65;42.69;96488.63;5137177;27;20047;-66
2022/12/22 10:51:48;;;;;;;7.25;5.20;;;;;;;8.76;42.92;96480.44;5136761;27;20053;-64
2022/12/22 10:54:26;;;;;;;;;;;;;;;8.82;42.52;96479.41;5137104;27;20078;-63
2022/12/22 10:57:20;;;;;;;7.82;5.13;;;;;;;8.69;44.27;96474.59;5136630;27;19948;-64
2022/12/22 10:59:51;;;;;;;6.25;4.53;;;;;;;8.61;44.41;96478.34;5136725;27;20085;-65
2022/12/22 11:02:33;;;;;;;;;;;;;;;8.52;44.58;96477.66;5137168;27;20130;-63
2022/12/22 11:05:06;;;;;;;7.47;5.45;;;;;;;8.42;44.58;96474.50;5136413;27;20326;-65
2022/12/22 11:07:37;;;;;;;9.82;5.90;;;;;;;8.42;45.18;96469.28;5136542;27;20134;-63
2022/12/22 11:10:17;;;;;;;11.55;6.65;;;;;;;8.41;45.44;96467.59;5136501;27;20130;-63
2022/12/22 11:13:07;;;;;;;7.13;5.50;;;;;;;8.51;45.83;96470.75;5136439;27;20062;-64
2022/12/22 11:15:45;;;;;;;7.60;6.05;;;;;;;8.53;46.95;96460.28;5136355;27;20150;-62
2022/12/22 11:18:31;;;;;;;11.43;6.63;;;;;;;8.58;46.20;96456.66;5136262;27;20047;-64
2022/12/22 11:21:03;;;;;;;11.35;7.45;;;;;;;8.51;46.92;96465.53;5136289;27;20072;-63
2022/12/22 11:23:36;;;;;;;12.57;7.05;;;;;;;8.46;46.96;96459.63;5136233;27;20047;-63
2022/12/22 11:26:11;;;;;;;11.27;7.60;;;;;;;8.50;47.33;96463.84;5136158;27;20124;-64
2022/12/22 11:29:02;;;;;;;13.60;7.90;;;;;;;8.44;47.71;96459.69;5136128;27;20071;-66
2022/12/22 11:31:49;;;;;;;10.93;8.38;;;;;;;8.33;47.76;96457.41;5136317;27;20043;-66
2022/12/22 11:34:28;;;;;;;10.60;7.88;;;;;;;8.32;47.90;96447.00;5135906;27;20420;-65
2022/12/22 11:37:04;;;;;;;13.75;8.32;;;;;;;8.27;48.41;96448.88;5136105;27;20051;-65
2022/12/22 11:39:42;;;;;;;15.90;8.93;;;;;;;8.29;48.75;96452.31;5135924;27;20094;-64
2022/12/22 11:42:29;;;;;;;14.68;8.43;;;;;;;8.16;48.73;96451.84;5135897;27;20047;-63
2022/12/22 11:45:14;;;;;;;14.25;8.68;;;;;;;8.22;48.85;96443.84;5135667;27;20051;-64
2022/12/22 11:47:52;;;;;;;14.02;9.23;;;;;;;8.13;49.43;96437.13;5135818;27;20142;-64
2022/12/22 11:50:32;;;;;;;15.65;9.65;;;;;;;8.09;48.94;96435.53;5135647;27;20043;-64
2022/12/22 11:53:16;;;;;;;11.70;7.83;;;;;;;8.04;49.29;96432.22;5135666;27;20098;-62
2022/12/22 11:55:47;;;;;;;12.32;8.85;;;;;;;7.91;49.30;96426.50;5134817;27;20298;-64
2022/12/22 11:58:41;;;;;;;18.45;11.10;;;;;;;7.95;49.13;96428.97;5135524;27;20549;-65
2022/12/22 12:01:21;;;;;;;20.00;8.82;;;;;;;7.85;49.44;96437.94;5135636;27;20043;-62
2022/12/22 12:04:16;;;;;;;22.88;9.73;;;;;;;7.78;48.47;96431.22;5135382;27;20072;-63
2022/12/22 12:06:56;;;;;;;16.15;10.05;;;;;;;7.81;48.94;96433.72;5135385;27;20058;-64
2022/12/22 12:09:36;;;;;;;17.58;10.82;;;;;;;7.84;49.07;96428.44;5135323;27;20071;-65
2022/12/22 12:12:15;;;;;;;16.07;8.97;;;;;;;7.79;48.97;96433.78;5135388;27;20047;-63
2022/12/22 12:14:52;;;;;;;14.60;9.25;;;;;;;7.80;48.67;96439.84;5135269;27;20043;-62
2022/12/22 12:17:28;;;;;;;23.35;10.32;;;;;;;7.74;49.07;96427.00;5135099;27;20054;-65
2022/12/22 12:20:11;;;;;;;14.48;8.40;;;;;;;7.58;49.27;96427.41;5135058;27;20043;-64
2022/12/22 12:22:53;;;;;;;22.35;9.43;;;;;;;7.55;49.23;96428.34;5135106;27;20053;-63
2022/12/22 12:25:28;;;;;;;16.73;8.13;;;;;;;7.48;48.44;96433.78;5134932;27;20054;-65
2022/12/22 12:28:17;;;;;;;17.95;8.75;;;;;;;7.43;49.27;96431.28;5134976;27;20485;-64
2022/12/22 12:30:52;;;;;;;12.75;8.10;;;;;;;7.40;48.55;96426.16;5131099;27;20047;-64
2022/12/22 12:33:27;;;;;;;18.33;8.73;;;;;;;7.39;48.35;96433.13;5135115;27;20055;-65
2022/12/22 12:36:03;;;;;;;18.13;8.63;;;;;;;7.43;48.38;96428.69;5134749;27;20086;-64
2022/12/22 12:38:41;;;;;;;15.95;8.05;;;;;;;7.46;48.65;96424.25;5134695;27;20135;-64
2022/12/22 12:41:18;;;;;;;9.73;7.20;;;;;;;7.43;48.10;96429.53;5134855;27;20075;-63
2022/12/22 12:43:48;;;;;;;13.20;7.25;;;;;;;7.41;47.59;96427.88;5134505;27;20043;-65
2022/12/22 12:46:53;;;;;;;10.17;7.07;;;;;;;7.30;47.74;96433.38;5134904;27;20057;-65
2022/12/22 12:50:01;;;;;;;11.90;7.82;;;;;;;7.22;48.73;96430.97;5132096;27;20644;-65
2022/12/22 12:53:14;;;;;;;9.93;7.15;;;;;;;7.28;48.91;96436.00;5134503;27;20069;-62
2022/12/22 12:56:00;;;;;;;11.57;8.05;;;;;;;7.28;48.49;96433.41;5134540;27;20043;-65
2022/12/22 12:58:52;;;;;;;17.92;8.25;;;;;;;7.26;47.96;96432.63;5134315;27;20047;-65
2022/12/22 13:01:56;;;;;;;13.60;7.70;;;;;;;7.27;47.57;96436.06;5134377;27;20046;-64
2022/12/22 13:05:10;;;;;;;11.07;6.90;;;;;;;7.24;47.61;96436.13;5134244;27;20119;-62
2022/12/22 13:08:07;;;;;;;11.38;7.25;;;;;;;7.17;47.99;96435.44;5134244;27;20495;-65
2022/12/22 13:10:35;;;;;;;12.13;7.80;;;;;;;7.07;47.53;96440.03;5134269;27;20065;-64
2022/12/22 13:13:04;;;;;;;11.32;6.90;;;;;;;6.98;48.26;96442.88;5134292;27;20047;-62
2022/12/22 13:15:33;;;;;;;13.65;8.85;;;;;;;6.87;47.74;96440.53;5134166;27;20126;-62
2022/12/22 13:18:02;;;;;;;12.05;8.18;;;;;;;6.78;47.89;96439.03;5134191;27;20065;-66
2022/12/22 13:20:32;;;;;;;13.02;6.82;;;;;;;6.76;47.85;96439.06;5134074;27;20126;-66
2022/12/22 13:23:01;;;;;;;14.70;8.25;;;;;;;6.77;48.26;96439.94;5134162;27;20138;-65
2022/12/22 13:25:41;;;;;;;14.43;7.53;;;;;;;6.75;48.11;96441.69;5133913;28;20054;-65
2022/12/22 13:28:15;;;;;;;13.13;8.20;;;;;;;6.72;47.96;96437.44;5134167;28;20075;-64
2022/12/22 13:30:47;;;;;;;12.55;7.85;;;;;;;6.69;48.28;96437.50;5134211;28;20047;-66
2022/12/22 13:33:18;;;;;;;22.70;11.63;;;;;;;6.71;48.05;96430.50;5133973;28;20101;-63
2022/12/22 13:35:47;;;;;;;13.50;9.18;;;;;;;6.75;47.87;96428.69;5134020;28;20047;-64
2022/12/22 13:38:29;;;;;;;10.93;7.13;;;;;;;6.73;47.79;96428.72;5134041;28;20039;-63
2022/12/22 13:40:57;;;;;;;17.58;8.98;;;;;;;6.72;47.88;96426.16;5133810;28;20058;-66
2022/12/22 13:43:28;;;;;;;14.40;6.53;;;;;;;6.74;47.56;96432.19;5133664;28;20070;-65
2022/12/22 13:45:56;;;;;;;10.05;6.50;;;;;;;6.74;47.21;96433.03;5133889;28;20481;-65
2022/12/22 13:48:31;;;;;;;17.27;6.78;;;;;;;6.68;47.29;96425.38;5133771;28;20064;-64
2022/12/22 13:51:00;;;;;;;8.82;6.50;;;;;;;6.67;47.59;96421.06;5133765;28;20130;-65
2022/12/22 13:53:33;;;;;;;12.63;6.50;;;;;;;6.63;47.45;96428.13;5133863;28;20043;-64
2022/12/22 13:56:01;;;;;;;9.98;6.45;;;;;;;6.62;47.40;96422.94;5133734;28;20043;-65
2022/12/22 13:58:34;;;;;;;11.38;6.93;;;;;;;6.59;46.95;96425.63;5133954;28;20153;-63
2022/12/22 14:01:04;;;;;;;11.35;6.22;;;;;;;6.53;47.64;96424.03;5133726;28;20092;-64
2022/12/22 14:03:31;;;;;;;10.77;7.07;;;;;;;6.51;47.58;96423.19;5133694;28;20049;-63
2022/12/22 14:05:58;;;;;;;13.27;7.38;;;;;;;6.48;47.41;96425.88;5133636;28;20051;-64
2022/12/22 14:08:25;;;;;;;10.45;7.03;;;;;;;6.46;47.63;96418.09;5133820;28;20043;-65
2022/12/22 14:10:55;;;;;;;7.15;5.78;;;;;;;6.36;47.43;96411.41;5133620;28;20134;-65
2022/12/22 14:13:28;;;;;;;10.32;6.57;;;;;;;6.32;47.53;96415.81;5133715;28;20608;-65
2022/12/22 14:16:03;;;;;;;16.88;7.65;;;;;;;6.26;47.98;96414.22;5133680;28;20104;-65
2022/12/22 14:18:33;;;;;;;28.67;18.50;;;;;;;6.17;48.16;96417.03;5133514;27;20464;-65
2022/12/22 14:21:00;;;;;;;25.73;16.83;;;;;;;6.16;48.25;96421.38;5137476;27;20108;-62
2022/12/22 14:23:31;;;;;;;28.60;15.30;;;;;;;6.10;48.11;96418.03;5137396;27;20058;-62
2022/12/22 14:26:00;;;;;;;13.95;7.40;;;;;;;6.03;48.93;96418.16;5137217;27;20511;-65
2022/12/22 14:28:30;;;;;;;14.15;6.93;;;;;;;5.76;50.09;96415.28;5137214;27;20043;-63
2022/12/22 14:30:59;;;;;;;13.48;6.47;;;;;;;5.63;50.69;96414.66;5137141;27;20047;-65
2022/12/22 14:33:31;;;;;;;10.85;6.38;;;;;;;5.51;50.76;96418.34;5137334;27;20083;-63
2022/12/22 14:36:06;;;;;;;13.65;10.50;;;;;;;5.36;51.58;96414.31;5137190;27;20092;-63
2022/12/22 14:38:40;;;;;;;10.50;6.65;;;;;;;5.21;52.31;96414.63;5137319;27;20050;-64
2022/12/22 14:41:39;;;;;;;10.98;5.63;;;;;;;5.06;52.67;96414.84;5137000;27;20481;-63
2022/12/22 14:43:59;;;;;;;9.82;6.75;;;;;;;4.90;53.35;96410.81;5136544;27;20405;-64
2022/12/22 14:46:26;;;;;;;11.15;6.13;;;;;;;4.74;53.48;96412.81;5136911;27;20577;-62
2022/12/22 14:48:57;;;;;;;10.07;5.88;;;;;;;4.61;54.21;96417.38;5136948;27;20043;-64
2022/12/22 14:51:25;;;;;;;8.70;5.72;;;;;;;4.46;54.27;96415.88;5136911;27;20480;-62
2022/12/22 14:53:54;;;;;;;9.23;5.18;;;;;;;4.27;54.69;96424.78;5137079;27;20071;-63
2022/12/22 14:56:22;;;;;;;10.90;6.25;;;;;;;4.09;54.97;96425.03;5136868;27;20104;-65
2022/12/22 14:58:50;;;;;;;9.65;5.72;;;;;;;3.97;55.25;96416.56;5136990;27;20489;-63
2022/12/22 15:01:23;;;;;;;9.30;5.20;;;;;;;3.72;55.82;96409.13;5136746;27;20501;-65
2022/12/22 15:04:07;;;;;;;7.20;4.85;;;;;;;3.47;56.55;96413.75;5136604;27;20104;-63
2022/12/22 15:06:40;;;;;;;8.13;4.85;;;;;;;3.34;57.14;96416.47;5136402;27;20051;-64
2022/12/22 15:09:26;;;;;;;8.48;5.47;;;;;;;3.22;57.66;96414.03;5136661;27;20079;-64
2022/12/22 15:11:55;;;;;;;13.88;5.65;;;;;;;3.04;57.87;96408.16;5136453;27;20511;-63
2022/12/22 15:14:25;;;;;;;12.33;4.70;;;;;;;2.95;58.06;96410.84;5136464;27;20047;-63
2022/12/22 15:16:56;;;;;;;7.88;5.05;;;;;;;2.85;58.47;96420.41;5136419;27;20078;-63
2022/12/22 15:19:30;;;;;;;8.55;4.80;;;;;;;2.72;58.48;96428.28;5136398;27;20086;-63
2022/12/22 15:21:57;;;;;;;9.70;5.10;;;;;;;2.60;58.93;96438.69;5136342;27;20070;-63
2022/12/22 15:24:25;;;;;;;9.45;5.38;;;;;;;2.47;59.33;96438.78;5136107;27;20050;-62
2022/12/22 15:26:52;;;;;;;9.77;4.88;;;;;;;2.27;60.38;96444.97;5136070;27;20051;-65
2022/12/22 15:29:19;;;;;;;12.43;5.93;;;;;;;2.09;61.20;96447.66;5136032;27;20054;-65
2022/12/22 15:31:47;;;;;;;13.57;5.85;;;;;;;1.97;61.64;96443.41;5134958;27;20093;-62
2022/12/22 15:34:22;;;;;;;12.95;5.72;;;;;;;1.71;63.12;96439.22;5136196;27;20096;-63
2022/12/22 15:36:51;;;;;;;8.57;5.53;;;;;;;1.60;63.15;96440.13;5135810;27;20051;-65
2022/12/22 15:39:20;;;;;;;10.35;6.07;;;;;;;1.48;63.38;96438.47;5135857;27;20236;-61